sensor_id;sensor_type;location;lat;lon;timestamp;temperature;humidity
12819;DHT22;6474;53.474;9.894;2023-06-14T00:00:05;17.70;48.50
12819;DHT22;6474;53.474;9.894;2023-06-14T00:02:34;17.60;48.50
12819;DHT22;6474;53.474;9.894;2023-06-14T00:05:03;17.60;48.60
12819;DHT22;6474;53.474;9.894;2023-06-14T00:07:35;17.50;48.50
12819;DHT22;6474;53.474;9.894;2023-06-14T00:10:06;17.50;48.60
12819;DHT22;6474;53.474;9.894;2023-06-14T00:12:35;17.50;48.60
12819;DHT22;6474;53.474;9.894;2023-06-14T00:15:07;17.40;48.70
12819;DHT22;6474;53.474;9.894;2023-06-14T00:17:36;17.40;48.70
12819;DHT22;6474;53.474;9.894;2023-06-14T00:20:06;17.40;48.70
12819;DHT22;6474;53.474;9.894;2023-06-14T00:22:34;17.40;48.80
12819;DHT22;6474;53.474;9.894;2023-06-14T00:25:06;17.30;48.80
12819;DHT22;6474;53.474;9.894;2023-06-14T00:27:54;17.30;48.80
12819;DHT22;6474;53.474;9.894;2023-06-14T00:30:24;17.20;48.80
12819;DHT22;6474;53.474;9.894;2023-06-14T00:32:58;17.20;48.80
12819;DHT22;6474;53.474;9.894;2023-06-14T00:35:26;17.20;48.90
12819;DHT22;6474;53.474;9.894;2023-06-14T00:37:54;17.20;48.90
12819;DHT22;6474;53.474;9.894;2023-06-14T00:40:24;17.20;48.90
12819;DHT22;6474;53.474;9.894;2023-06-14T00:42:52;17.10;48.90
12819;DHT22;6474;53.474;9.894;2023-06-14T00:45:20;17.10;48.90
12819;DHT22;6474;53.474;9.894;2023-06-14T00:47:50;17.10;49.00
12819;DHT22;6474;53.474;9.894;2023-06-14T00:50:25;17.00;49.00
12819;DHT22;6474;53.474;9.894;2023-06-14T00:52:53;17.00;49.10
12819;DHT22;6474;53.474;9.894;2023-06-14T00:55:21;16.90;49.10
12819;DHT22;6474;53.474;9.894;2023-06-14T00:57:49;16.90;49.10
12819;DHT22;6474;53.474;9.894;2023-06-14T01:00:18;16.80;49.20
12819;DHT22;6474;53.474;9.894;2023-06-14T01:02:46;16.90;49.20
12819;DHT22;6474;53.474;9.894;2023-06-14T01:05:17;16.80;49.20
12819;DHT22;6474;53.474;9.894;2023-06-14T01:07:55;16.80;49.20
12819;DHT22;6474;53.474;9.894;2023-06-14T01:10:32;16.80;49.20
12819;DHT22;6474;53.474;9.894;2023-06-14T01:13:08;16.80;49.20
12819;DHT22;6474;53.474;9.894;2023-06-14T01:15:39;16.70;49.10
12819;DHT22;6474;53.474;9.894;2023-06-14T01:18:07;16.70;49.20
12819;DHT22;6474;53.474;9.894;2023-06-14T01:20:47;16.70;49.20
12819;DHT22;6474;53.474;9.894;2023-06-14T01:23:18;16.60;49.20
12819;DHT22;6474;53.474;9.894;2023-06-14T01:25:47;16.60;49.20
12819;DHT22;6474;53.474;9.894;2023-06-14T01:28:21;16.60;49.30
12819;DHT22;6474;53.474;9.894;2023-06-14T01:30:51;16.60;49.40
12819;DHT22;6474;53.474;9.894;2023-06-14T01:33:21;16.50;49.40
12819;DHT22;6474;53.474;9.894;2023-06-14T01:35:51;16.50;49.40
12819;DHT22;6474;53.474;9.894;2023-06-14T01:38:25;16.40;49.40
12819;DHT22;6474;53.474;9.894;2023-06-14T01:40:55;16.40;49.30
12819;DHT22;6474;53.474;9.894;2023-06-14T01:43:23;16.40;49.30
12819;DHT22;6474;53.474;9.894;2023-06-14T01:45:53;16.40;49.30
12819;DHT22;6474;53.474;9.894;2023-06-14T01:48:23;16.40;49.30
12819;DHT22;6474;53.474;9.894;2023-06-14T01:50:52;16.40;49.30
12819;DHT22;6474;53.474;9.894;2023-06-14T01:53:22;16.30;49.80
12819;DHT22;6474;53.474;9.894;2023-06-14T01:55:50;16.30;49.30
12819;DHT22;6474;53.474;9.894;2023-06-14T01:58:21;16.20;49.20
12819;DHT22;6474;53.474;9.894;2023-06-14T02:00:51;16.20;49.20
12819;DHT22;6474;53.474;9.894;2023-06-14T02:03:22;16.20;49.20
12819;DHT22;6474;53.474;9.894;2023-06-14T02:05:52;16.20;49.30
12819;DHT22;6474;53.474;9.894;2023-06-14T02:08:22;16.10;49.30
12819;DHT22;6474;53.474;9.894;2023-06-14T02:10:51;16.10;49.40
12819;DHT22;6474;53.474;9.894;2023-06-14T02:13:19;16.10;49.50
12819;DHT22;6474;53.474;9.894;2023-06-14T02:15:46;16.10;49.50
12819;DHT22;6474;53.474;9.894;2023-06-14T02:18:18;16.00;49.50
12819;DHT22;6474;53.474;9.894;2023-06-14T02:20:46;16.00;49.50
12819;DHT22;6474;53.474;9.894;2023-06-14T02:23:14;16.00;49.60
12819;DHT22;6474;53.474;9.894;2023-06-14T02:25:44;16.00;49.60
12819;DHT22;6474;53.474;9.894;2023-06-14T02:28:13;15.90;49.60
12819;DHT22;6474;53.474;9.894;2023-06-14T02:30:41;16.00;49.70
12819;DHT22;6474;53.474;9.894;2023-06-14T02:33:09;15.90;49.60
12819;DHT22;6474;53.474;9.894;2023-06-14T02:35:40;15.90;49.60
12819;DHT22;6474;53.474;9.894;2023-06-14T02:38:08;15.90;49.60
12819;DHT22;6474;53.474;9.894;2023-06-14T02:40:36;15.90;49.60
12819;DHT22;6474;53.474;9.894;2023-06-14T02:43:05;15.80;49.60
12819;DHT22;6474;53.474;9.894;2023-06-14T02:45:34;15.80;49.70
12819;DHT22;6474;53.474;9.894;2023-06-14T02:48:05;15.80;49.70
12819;DHT22;6474;53.474;9.894;2023-06-14T02:50:33;15.80;49.70
12819;DHT22;6474;53.474;9.894;2023-06-14T02:53:03;15.80;49.70
12819;DHT22;6474;53.474;9.894;2023-06-14T02:55:31;15.80;49.70
12819;DHT22;6474;53.474;9.894;2023-06-14T02:58:00;15.80;49.80
12819;DHT22;6474;53.474;9.894;2023-06-14T03:00:29;15.80;49.80
12819;DHT22;6474;53.474;9.894;2023-06-14T03:02:57;15.70;49.70
12819;DHT22;6474;53.474;9.894;2023-06-14T03:05:28;15.70;49.80
12819;DHT22;6474;53.474;9.894;2023-06-14T03:07:56;15.70;49.80
12819;DHT22;6474;53.474;9.894;2023-06-14T03:10:24;15.70;49.80
12819;DHT22;6474;53.474;9.894;2023-06-14T03:12:56;15.70;49.80
12819;DHT22;6474;53.474;9.894;2023-06-14T03:15:24;15.70;49.80
12819;DHT22;6474;53.474;9.894;2023-06-14T03:17:53;15.70;49.90
12819;DHT22;6474;53.474;9.894;2023-06-14T03:20:21;15.70;49.90
12819;DHT22;6474;53.474;9.894;2023-06-14T03:22:50;15.70;49.80
12819;DHT22;6474;53.474;9.894;2023-06-14T03:25:19;15.70;49.80
12819;DHT22;6474;53.474;9.894;2023-06-14T03:27:48;15.70;49.90
12819;DHT22;6474;53.474;9.894;2023-06-14T03:30:16;15.70;49.80
12819;DHT22;6474;53.474;9.894;2023-06-14T03:32:46;15.80;49.90
12819;DHT22;6474;53.474;9.894;2023-06-14T03:35:16;15.80;49.90
12819;DHT22;6474;53.474;9.894;2023-06-14T03:37:44;15.80;49.90
12819;DHT22;6474;53.474;9.894;2023-06-14T03:40:15;15.80;50.50
12819;DHT22;6474;53.474;9.894;2023-06-14T03:42:43;15.80;49.90
12819;DHT22;6474;53.474;9.894;2023-06-14T03:45:11;15.80;49.90
12819;DHT22;6474;53.474;9.894;2023-06-14T03:47:39;15.80;49.90
12819;DHT22;6474;53.474;9.894;2023-06-14T03:50:08;15.90;50.10
12819;DHT22;6474;53.474;9.894;2023-06-14T03:52:38;16.00;50.20
12819;DHT22;6474;53.474;9.894;2023-06-14T03:55:07;16.10;50.10
12819;DHT22;6474;53.474;9.894;2023-06-14T03:57:38;16.10;50.00
12819;DHT22;6474;53.474;9.894;2023-06-14T04:00:07;16.20;50.00
12819;DHT22;6474;53.474;9.894;2023-06-14T04:02:36;16.20;50.00
12819;DHT22;6474;53.474;9.894;2023-06-14T04:05:04;16.20;50.00
12819;DHT22;6474;53.474;9.894;2023-06-14T04:07:35;16.10;50.00
12819;DHT22;6474;53.474;9.894;2023-06-14T04:10:09;16.20;50.10
12819;DHT22;6474;53.474;9.894;2023-06-14T04:12:37;16.10;50.00
12819;DHT22;6474;53.474;9.894;2023-06-14T04:15:07;16.10;50.10
12819;DHT22;6474;53.474;9.894;2023-06-14T04:17:47;16.10;50.20
12819;DHT22;6474;53.474;9.894;2023-06-14T04:20:15;16.10;50.20
12819;DHT22;6474;53.474;9.894;2023-06-14T04:22:43;16.10;50.20
12819;DHT22;6474;53.474;9.894;2023-06-14T04:25:13;16.10;50.20
12819;DHT22;6474;53.474;9.894;2023-06-14T04:27:45;16.20;50.30
12819;DHT22;6474;53.474;9.894;2023-06-14T04:30:14;16.20;50.40
12819;DHT22;6474;53.474;9.894;2023-06-14T04:32:42;16.30;50.60
12819;DHT22;6474;53.474;9.894;2023-06-14T04:35:10;16.50;50.70
12819;DHT22;6474;53.474;9.894;2023-06-14T04:37:39;16.60;50.60
12819;DHT22;6474;53.474;9.894;2023-06-14T04:40:09;16.80;50.40
12819;DHT22;6474;53.474;9.894;2023-06-14T04:42:40;16.90;50.20
12819;DHT22;6474;53.474;9.894;2023-06-14T04:45:12;16.90;49.80
12819;DHT22;6474;53.474;9.894;2023-06-14T04:47:42;17.00;49.80
12819;DHT22;6474;53.474;9.894;2023-06-14T04:50:10;17.00;49.90
12819;DHT22;6474;53.474;9.894;2023-06-14T04:52:39;17.00;49.90
12819;DHT22;6474;53.474;9.894;2023-06-14T04:55:08;17.00;50.00
12819;DHT22;6474;53.474;9.894;2023-06-14T04:57:36;17.00;50.10
12819;DHT22;6474;53.474;9.894;2023-06-14T05:00:07;17.00;50.20
12819;DHT22;6474;53.474;9.894;2023-06-14T05:02:39;17.00;50.20
12819;DHT22;6474;53.474;9.894;2023-06-14T05:05:07;17.00;50.30
12819;DHT22;6474;53.474;9.894;2023-06-14T05:07:35;17.00;50.30
12819;DHT22;6474;53.474;9.894;2023-06-14T05:10:08;17.00;50.30
12819;DHT22;6474;53.474;9.894;2023-06-14T05:12:36;17.00;50.30
12819;DHT22;6474;53.474;9.894;2023-06-14T05:15:07;17.10;50.40
12819;DHT22;6474;53.474;9.894;2023-06-14T05:17:36;17.20;50.50
12819;DHT22;6474;53.474;9.894;2023-06-14T05:20:06;17.20;50.50
12819;DHT22;6474;53.474;9.894;2023-06-14T05:22:34;17.30;50.70
12819;DHT22;6474;53.474;9.894;2023-06-14T05:25:02;17.40;50.60
12819;DHT22;6474;53.474;9.894;2023-06-14T05:27:31;17.40;50.40
12819;DHT22;6474;53.474;9.894;2023-06-14T05:30:01;17.50;50.40
12819;DHT22;6474;53.474;9.894;2023-06-14T05:32:31;17.60;50.30
12819;DHT22;6474;53.474;9.894;2023-06-14T05:34:59;17.70;50.40
12819;DHT22;6474;53.474;9.894;2023-06-14T05:37:27;17.80;50.50
12819;DHT22;6474;53.474;9.894;2023-06-14T05:39:55;17.80;51.10
12819;DHT22;6474;53.474;9.894;2023-06-14T05:42:23;17.80;50.50
12819;DHT22;6474;53.474;9.894;2023-06-14T05:44:51;17.80;50.50
12819;DHT22;6474;53.474;9.894;2023-06-14T05:47:19;17.90;50.60
12819;DHT22;6474;53.474;9.894;2023-06-14T05:49:49;17.90;50.60
12819;DHT22;6474;53.474;9.894;2023-06-14T05:52:16;18.00;50.60
12819;DHT22;6474;53.474;9.894;2023-06-14T05:54:44;18.00;50.60
12819;DHT22;6474;53.474;9.894;2023-06-14T05:57:12;18.00;50.70
12819;DHT22;6474;53.474;9.894;2023-06-14T05:59:40;18.00;50.60
12819;DHT22;6474;53.474;9.894;2023-06-14T06:02:08;18.00;50.60
12819;DHT22;6474;53.474;9.894;2023-06-14T06:04:36;18.10;50.80
12819;DHT22;6474;53.474;9.894;2023-06-14T06:07:05;18.20;50.80
12819;DHT22;6474;53.474;9.894;2023-06-14T06:09:33;18.40;50.60
12819;DHT22;6474;53.474;9.894;2023-06-14T06:12:01;18.60;50.20
12819;DHT22;6474;53.474;9.894;2023-06-14T06:14:29;18.90;50.20
12819;DHT22;6474;53.474;9.894;2023-06-14T06:16:57;19.10;50.00
12819;DHT22;6474;53.474;9.894;2023-06-14T06:19:25;19.30;49.70
12819;DHT22;6474;53.474;9.894;2023-06-14T06:21:53;19.60;49.50
12819;DHT22;6474;53.474;9.894;2023-06-14T06:24:22;19.70;49.40
12819;DHT22;6474;53.474;9.894;2023-06-14T06:26:50;19.60;49.30
12819;DHT22;6474;53.474;9.894;2023-06-14T06:29:19;19.60;49.30
12819;DHT22;6474;53.474;9.894;2023-06-14T06:31:46;19.70;49.10
12819;DHT22;6474;53.474;9.894;2023-06-14T06:34:14;19.80;49.20
12819;DHT22;6474;53.474;9.894;2023-06-14T06:36:42;19.80;49.10
12819;DHT22;6474;53.474;9.894;2023-06-14T06:39:10;19.80;49.20
12819;DHT22;6474;53.474;9.894;2023-06-14T06:41:39;19.80;49.20
12819;DHT22;6474;53.474;9.894;2023-06-14T06:44:07;19.80;49.20
12819;DHT22;6474;53.474;9.894;2023-06-14T06:46:36;19.80;49.20
12819;DHT22;6474;53.474;9.894;2023-06-14T06:49:07;19.70;49.30
12819;DHT22;6474;53.474;9.894;2023-06-14T06:51:35;19.70;49.40
12819;DHT22;6474;53.474;9.894;2023-06-14T06:54:03;19.60;49.50
12819;DHT22;6474;53.474;9.894;2023-06-14T06:56:32;19.60;49.70
12819;DHT22;6474;53.474;9.894;2023-06-14T06:59:02;19.50;49.70
12819;DHT22;6474;53.474;9.894;2023-06-14T07:01:29;19.60;50.60
12819;DHT22;6474;53.474;9.894;2023-06-14T07:04:00;19.70;50.10
12819;DHT22;6474;53.474;9.894;2023-06-14T07:06:29;19.90;50.00
12819;DHT22;6474;53.474;9.894;2023-06-14T07:08:57;20.20;50.00
12819;DHT22;6474;53.474;9.894;2023-06-14T07:11:28;20.40;49.80
12819;DHT22;6474;53.474;9.894;2023-06-14T07:13:56;20.60;49.80
12819;DHT22;6474;53.474;9.894;2023-06-14T07:16:25;20.80;49.70
12819;DHT22;6474;53.474;9.894;2023-06-14T07:18:53;20.90;49.50
12819;DHT22;6474;53.474;9.894;2023-06-14T07:21:21;21.00;49.50
12819;DHT22;6474;53.474;9.894;2023-06-14T07:23:49;21.00;49.50
12819;DHT22;6474;53.474;9.894;2023-06-14T07:26:17;21.00;49.50
12819;DHT22;6474;53.474;9.894;2023-06-14T07:28:46;21.10;49.60
12819;DHT22;6474;53.474;9.894;2023-06-14T07:31:14;21.10;49.60
12819;DHT22;6474;53.474;9.894;2023-06-14T07:33:43;21.00;49.60
12819;DHT22;6474;53.474;9.894;2023-06-14T07:36:11;21.00;49.70
12819;DHT22;6474;53.474;9.894;2023-06-14T07:38:39;21.00;49.80
12819;DHT22;6474;53.474;9.894;2023-06-14T07:41:08;21.00;49.90
12819;DHT22;6474;53.474;9.894;2023-06-14T07:43:35;21.00;49.90
12819;DHT22;6474;53.474;9.894;2023-06-14T07:46:04;21.00;50.00
12819;DHT22;6474;53.474;9.894;2023-06-14T07:48:34;21.00;50.10
12819;DHT22;6474;53.474;9.894;2023-06-14T07:51:03;21.00;50.10
12819;DHT22;6474;53.474;9.894;2023-06-14T07:53:31;21.00;50.00
12819;DHT22;6474;53.474;9.894;2023-06-14T07:55:59;21.00;50.00
12819;DHT22;6474;53.474;9.894;2023-06-14T07:58:27;21.00;50.10
12819;DHT22;6474;53.474;9.894;2023-06-14T08:00:55;21.00;50.00
12819;DHT22;6474;53.474;9.894;2023-06-14T08:03:24;21.10;50.10
12819;DHT22;6474;53.474;9.894;2023-06-14T08:05:52;21.10;50.10
12819;DHT22;6474;53.474;9.894;2023-06-14T08:08:21;21.20;50.10
12819;DHT22;6474;53.474;9.894;2023-06-14T08:10:49;21.20;50.10
12819;DHT22;6474;53.474;9.894;2023-06-14T08:13:17;21.30;50.10
12819;DHT22;6474;53.474;9.894;2023-06-14T08:15:45;21.30;50.00
12819;DHT22;6474;53.474;9.894;2023-06-14T08:18:13;21.30;50.10
12819;DHT22;6474;53.474;9.894;2023-06-14T08:20:41;21.40;50.10
12819;DHT22;6474;53.474;9.894;2023-06-14T08:23:10;21.50;50.10
12819;DHT22;6474;53.474;9.894;2023-06-14T08:25:39;21.50;50.00
12819;DHT22;6474;53.474;9.894;2023-06-14T08:28:07;21.60;50.10
12819;DHT22;6474;53.474;9.894;2023-06-14T08:30:35;21.70;50.70
12819;DHT22;6474;53.474;9.894;2023-06-14T08:33:03;21.70;50.60
12819;DHT22;6474;53.474;9.894;2023-06-14T08:35:42;21.80;50.10
12819;DHT22;6474;53.474;9.894;2023-06-14T08:38:10;21.80;50.00
12819;DHT22;6474;53.474;9.894;2023-06-14T08:40:41;21.90;50.00
12819;DHT22;6474;53.474;9.894;2023-06-14T08:43:11;22.00;50.00
12819;DHT22;6474;53.474;9.894;2023-06-14T08:45:39;22.00;50.00
12819;DHT22;6474;53.474;9.894;2023-06-14T08:48:08;22.10;50.00
12819;DHT22;6474;53.474;9.894;2023-06-14T08:50:39;22.20;50.00
12819;DHT22;6474;53.474;9.894;2023-06-14T08:53:11;22.30;50.00
12819;DHT22;6474;53.474;9.894;2023-06-14T08:55:48;22.40;50.00
12819;DHT22;6474;53.474;9.894;2023-06-14T08:58:17;22.40;49.80
12819;DHT22;6474;53.474;9.894;2023-06-14T09:00:46;22.50;49.90
12819;DHT22;6474;53.474;9.894;2023-06-14T09:03:14;22.60;50.00
12819;DHT22;6474;53.474;9.894;2023-06-14T09:05:42;22.70;50.10
12819;DHT22;6474;53.474;9.894;2023-06-14T09:08:12;22.70;50.00
12819;DHT22;6474;53.474;9.894;2023-06-14T09:10:40;22.80;49.90
12819;DHT22;6474;53.474;9.894;2023-06-14T09:13:09;22.90;49.80
12819;DHT22;6474;53.474;9.894;2023-06-14T09:15:37;23.00;49.80
12819;DHT22;6474;53.474;9.894;2023-06-14T09:18:05;23.10;49.80
12819;DHT22;6474;53.474;9.894;2023-06-14T09:20:34;23.20;49.80
12819;DHT22;6474;53.474;9.894;2023-06-14T09:23:02;23.20;49.70
12819;DHT22;6474;53.474;9.894;2023-06-14T09:25:32;23.30;49.70
12819;DHT22;6474;53.474;9.894;2023-06-14T09:28:07;23.40;49.70
12819;DHT22;6474;53.474;9.894;2023-06-14T09:30:37;23.40;49.70
12819;DHT22;6474;53.474;9.894;2023-06-14T09:33:06;23.50;49.70
12819;DHT22;6474;53.474;9.894;2023-06-14T09:35:34;23.50;49.70
12819;DHT22;6474;53.474;9.894;2023-06-14T09:38:02;23.50;49.60
12819;DHT22;6474;53.474;9.894;2023-06-14T09:40:34;23.50;49.60
12819;DHT22;6474;53.474;9.894;2023-06-14T09:43:05;23.60;49.60
12819;DHT22;6474;53.474;9.894;2023-06-14T09:45:36;23.70;49.60
12819;DHT22;6474;53.474;9.894;2023-06-14T09:48:06;23.80;49.50
12819;DHT22;6474;53.474;9.894;2023-06-14T09:50:35;23.80;49.50
12819;DHT22;6474;53.474;9.894;2023-06-14T09:53:06;23.80;49.50
12819;DHT22;6474;53.474;9.894;2023-06-14T09:55:36;23.80;49.60
12819;DHT22;6474;53.474;9.894;2023-06-14T09:58:06;23.60;49.50
12819;DHT22;6474;53.474;9.894;2023-06-14T10:00:36;23.40;49.70
12819;DHT22;6474;53.474;9.894;2023-06-14T10:03:10;23.30;49.80
12819;DHT22;6474;53.474;9.894;2023-06-14T10:05:41;23.10;49.90
12819;DHT22;6474;53.474;9.894;2023-06-14T10:08:11;23.10;50.10
12819;DHT22;6474;53.474;9.894;2023-06-14T10:10:40;23.20;50.10
12819;DHT22;6474;53.474;9.894;2023-06-14T10:13:08;23.30;50.00
12819;DHT22;6474;53.474;9.894;2023-06-14T10:15:45;23.50;50.00
12819;DHT22;6474;53.474;9.894;2023-06-14T10:18:20;23.70;49.90
12819;DHT22;6474;53.474;9.894;2023-06-14T10:20:58;24.00;49.70
12819;DHT22;6474;53.474;9.894;2023-06-14T10:23:32;24.20;49.60
12819;DHT22;6474;53.474;9.894;2023-06-14T10:26:03;24.40;49.50
12819;DHT22;6474;53.474;9.894;2023-06-14T10:28:30;24.70;49.50
12819;DHT22;6474;53.474;9.894;2023-06-14T10:31:08;24.70;49.30
12819;DHT22;6474;53.474;9.894;2023-06-14T10:33:39;24.80;49.30
12819;DHT22;6474;53.474;9.894;2023-06-14T10:36:25;24.80;49.30
12819;DHT22;6474;53.474;9.894;2023-06-14T10:38:58;24.80;49.30
12819;DHT22;6474;53.474;9.894;2023-06-14T10:41:27;24.80;49.30
12819;DHT22;6474;53.474;9.894;2023-06-14T10:44:38;24.60;49.30
12819;DHT22;6474;53.474;9.894;2023-06-14T10:47:10;24.40;49.50
12819;DHT22;6474;53.474;9.894;2023-06-14T10:49:41;24.50;49.70
12819;DHT22;6474;53.474;9.894;2023-06-14T10:52:11;24.80;49.80
12819;DHT22;6474;53.474;9.894;2023-06-14T10:55:06;25.00;49.50
12819;DHT22;6474;53.474;9.894;2023-06-14T10:57:37;25.10;49.30
12819;DHT22;6474;53.474;9.894;2023-06-14T11:00:10;25.00;49.40
12819;DHT22;6474;53.474;9.894;2023-06-14T11:03:03;25.20;49.50
12819;DHT22;6474;53.474;9.894;2023-06-14T11:05:48;25.30;49.40
12819;DHT22;6474;53.474;9.894;2023-06-14T11:11:22;25.90;48.90
12819;DHT22;6474;53.474;9.894;2023-06-14T11:13:51;26.10;48.30
12819;DHT22;6474;53.474;9.894;2023-06-14T11:16:19;26.10;48.30
12819;DHT22;6474;53.474;9.894;2023-06-14T11:18:49;26.30;48.30
12819;DHT22;6474;53.474;9.894;2023-06-14T11:21:18;26.30;48.30
12819;DHT22;6474;53.474;9.894;2023-06-14T11:23:50;26.30;48.30
12819;DHT22;6474;53.474;9.894;2023-06-14T11:26:25;26.20;48.30
12819;DHT22;6474;53.474;9.894;2023-06-14T11:28:58;26.20;48.30
12819;DHT22;6474;53.474;9.894;2023-06-14T11:31:27;26.30;48.30
12819;DHT22;6474;53.474;9.894;2023-06-14T11:33:58;26.30;48.30
12819;DHT22;6474;53.474;9.894;2023-06-14T11:36:27;26.10;48.60
12819;DHT22;6474;53.474;9.894;2023-06-14T11:39:01;25.90;49.00
12819;DHT22;6474;53.474;9.894;2023-06-14T11:41:34;25.70;49.20
12819;DHT22;6474;53.474;9.894;2023-06-14T11:44:02;25.60;49.40
12819;DHT22;6474;53.474;9.894;2023-06-14T11:46:30;25.40;49.60
12819;DHT22;6474;53.474;9.894;2023-06-14T11:49:00;25.20;49.70
12819;DHT22;6474;53.474;9.894;2023-06-14T11:51:30;25.00;49.80
12819;DHT22;6474;53.474;9.894;2023-06-14T11:53:58;24.90;50.00
12819;DHT22;6474;53.474;9.894;2023-06-14T11:56:26;24.80;50.00
12819;DHT22;6474;53.474;9.894;2023-06-14T11:58:55;24.90;50.00
12819;DHT22;6474;53.474;9.894;2023-06-14T12:01:24;25.10;49.90
12819;DHT22;6474;53.474;9.894;2023-06-14T12:03:54;25.20;49.70
12819;DHT22;6474;53.474;9.894;2023-06-14T12:06:32;25.50;49.70
12819;DHT22;6474;53.474;9.894;2023-06-14T12:09:05;25.60;49.40
12819;DHT22;6474;53.474;9.894;2023-06-14T12:11:40;25.70;49.20
12819;DHT22;6474;53.474;9.894;2023-06-14T12:14:09;25.70;49.20
12819;DHT22;6474;53.474;9.894;2023-06-14T12:16:38;25.70;49.30
12819;DHT22;6474;53.474;9.894;2023-06-14T12:19:11;25.90;49.30
12819;DHT22;6474;53.474;9.894;2023-06-14T12:21:41;26.20;49.10
12819;DHT22;6474;53.474;9.894;2023-06-14T12:24:09;26.50;48.40
12819;DHT22;6474;53.474;9.894;2023-06-14T12:26:41;26.60;48.50
12819;DHT22;6474;53.474;9.894;2023-06-14T12:29:09;26.70;48.50
12819;DHT22;6474;53.474;9.894;2023-06-14T12:31:39;26.60;48.50
12819;DHT22;6474;53.474;9.894;2023-06-14T12:34:07;26.40;48.30
12819;DHT22;6474;53.474;9.894;2023-06-14T12:36:35;26.30;48.90
12819;DHT22;6474;53.474;9.894;2023-06-14T12:39:09;26.20;48.70
12819;DHT22;6474;53.474;9.894;2023-06-14T12:41:37;26.20;49.10
12819;DHT22;6474;53.474;9.894;2023-06-14T12:44:08;26.30;49.10
12819;DHT22;6474;53.474;9.894;2023-06-14T12:46:36;26.40;48.60
12819;DHT22;6474;53.474;9.894;2023-06-14T12:49:08;26.50;48.40
12819;DHT22;6474;53.474;9.894;2023-06-14T12:51:36;26.30;48.90
12819;DHT22;6474;53.474;9.894;2023-06-14T12:54:04;26.20;48.70
12819;DHT22;6474;53.474;9.894;2023-06-14T12:56:33;25.90;49.00
12819;DHT22;6474;53.474;9.894;2023-06-14T12:59:01;25.60;49.10
12819;DHT22;6474;53.474;9.894;2023-06-14T13:01:29;25.50;49.30
12819;DHT22;6474;53.474;9.894;2023-06-14T13:03:57;25.60;49.40
12819;DHT22;6474;53.474;9.894;2023-06-14T13:06:25;25.80;49.40
12819;DHT22;6474;53.474;9.894;2023-06-14T13:08:52;26.10;49.20
12819;DHT22;6474;53.474;9.894;2023-06-14T13:11:24;26.30;49.00
12819;DHT22;6474;53.474;9.894;2023-06-14T13:13:53;26.50;48.40
12819;DHT22;6474;53.474;9.894;2023-06-14T13:16:21;26.70;48.50
12819;DHT22;6474;53.474;9.894;2023-06-14T13:18:49;26.90;48.70
12819;DHT22;6474;53.474;9.894;2023-06-14T13:21:17;27.00;48.70
12819;DHT22;6474;53.474;9.894;2023-06-14T13:23:45;26.90;48.60
12819;DHT22;6474;53.474;9.894;2023-06-14T13:26:13;26.60;48.50
12819;DHT22;6474;53.474;9.894;2023-06-14T13:28:41;26.30;48.30
12819;DHT22;6474;53.474;9.894;2023-06-14T13:31:11;26.00;48.20
12819;DHT22;6474;53.474;9.894;2023-06-14T13:33:39;25.80;48.80
12819;DHT22;6474;53.474;9.894;2023-06-14T13:36:06;25.60;49.00
12819;DHT22;6474;53.474;9.894;2023-06-14T13:38:34;25.30;49.10
12819;DHT22;6474;53.474;9.894;2023-06-14T13:41:02;25.20;49.30
12819;DHT22;6474;53.474;9.894;2023-06-14T13:43:30;25.10;49.30
12819;DHT22;6474;53.474;9.894;2023-06-14T13:45:58;25.10;49.50
12819;DHT22;6474;53.474;9.894;2023-06-14T13:48:27;25.30;49.50
12819;DHT22;6474;53.474;9.894;2023-06-14T13:50:55;25.60;49.40
12819;DHT22;6474;53.474;9.894;2023-06-14T13:53:23;25.90;49.10
12819;DHT22;6474;53.474;9.894;2023-06-14T13:55:52;25.90;48.80
12819;DHT22;6474;53.474;9.894;2023-06-14T13:58:20;25.80;48.70
12819;DHT22;6474;53.474;9.894;2023-06-14T14:00:48;25.90;48.60
12819;DHT22;6474;53.474;9.894;2023-06-14T14:03:16;25.90;48.30
12819;DHT22;6474;53.474;9.894;2023-06-14T14:05:47;25.90;48.50
12819;DHT22;6474;53.474;9.894;2023-06-14T14:08:15;25.90;48.10
12819;DHT22;6474;53.474;9.894;2023-06-14T14:10:43;26.00;48.10
12819;DHT22;6474;53.474;9.894;2023-06-14T14:13:11;26.20;48.20
12819;DHT22;6474;53.474;9.894;2023-06-14T14:15:40;26.30;48.30
12819;DHT22;6474;53.474;9.894;2023-06-14T14:18:08;26.50;48.40
12819;DHT22;6474;53.474;9.894;2023-06-14T14:20:36;26.60;48.40
12819;DHT22;6474;53.474;9.894;2023-06-14T14:23:06;26.60;48.20
12819;DHT22;6474;53.474;9.894;2023-06-14T14:25:34;26.70;48.20
12819;DHT22;6474;53.474;9.894;2023-06-14T14:28:02;26.70;48.20
12819;DHT22;6474;53.474;9.894;2023-06-14T14:30:30;26.70;48.00
12819;DHT22;6474;53.474;9.894;2023-06-14T14:33:02;26.50;48.10
12819;DHT22;6474;53.474;9.894;2023-06-14T14:35:32;26.30;48.30
12819;DHT22;6474;53.474;9.894;2023-06-14T14:38:00;26.10;48.20
12819;DHT22;6474;53.474;9.894;2023-06-14T14:40:31;25.90;48.10
12819;DHT22;6474;53.474;9.894;2023-06-14T14:42:59;25.60;48.00
12819;DHT22;6474;53.474;9.894;2023-06-14T14:45:27;25.50;48.60
12819;DHT22;6474;53.474;9.894;2023-06-14T14:47:55;25.30;48.70
12819;DHT22;6474;53.474;9.894;2023-06-14T14:50:23;25.40;48.90
12819;DHT22;6474;53.474;9.894;2023-06-14T14:52:50;25.70;48.80
12819;DHT22;6474;53.474;9.894;2023-06-14T14:55:19;25.90;48.10
12819;DHT22;6474;53.474;9.894;2023-06-14T14:57:48;25.90;48.10
12819;DHT22;6474;53.474;9.894;2023-06-14T15:00:16;25.90;48.10
12819;DHT22;6474;53.474;9.894;2023-06-14T15:02:45;25.70;47.90
12819;DHT22;6474;53.474;9.894;2023-06-14T15:05:13;25.70;47.90
12819;DHT22;6474;53.474;9.894;2023-06-14T15:07:41;25.60;47.90
12819;DHT22;6474;53.474;9.894;2023-06-14T15:10:09;25.60;47.90
12819;DHT22;6474;53.474;9.894;2023-06-14T15:12:37;25.40;47.70
12819;DHT22;6474;53.474;9.894;2023-06-14T15:15:07;25.40;48.20
12819;DHT22;6474;53.474;9.894;2023-06-14T15:17:36;25.50;47.90
12819;DHT22;6474;53.474;9.894;2023-06-14T15:20:05;25.70;47.90
12819;DHT22;6474;53.474;9.894;2023-06-14T15:22:35;25.80;48.00
12819;DHT22;6474;53.474;9.894;2023-06-14T15:25:03;25.90;48.10
12819;DHT22;6474;53.474;9.894;2023-06-14T15:27:31;26.10;47.90
12819;DHT22;6474;53.474;9.894;2023-06-14T15:29:59;26.30;47.80
12819;DHT22;6474;53.474;9.894;2023-06-14T15:32:29;26.30;47.60
12819;DHT22;6474;53.474;9.894;2023-06-14T15:34:56;26.40;47.50
12819;DHT22;6474;53.474;9.894;2023-06-14T15:37:24;26.40;47.40
12819;DHT22;6474;53.474;9.894;2023-06-14T15:39:52;26.30;47.40
12819;DHT22;6474;53.474;9.894;2023-06-14T15:42:20;26.20;47.60
12819;DHT22;6474;53.474;9.894;2023-06-14T15:44:48;26.20;47.60
12819;DHT22;6474;53.474;9.894;2023-06-14T15:47:16;26.20;47.60
12819;DHT22;6474;53.474;9.894;2023-06-14T15:49:45;26.20;47.50
12819;DHT22;6474;53.474;9.894;2023-06-14T15:52:13;26.10;47.50
12819;DHT22;6474;53.474;9.894;2023-06-14T15:54:41;26.00;47.70
12819;DHT22;6474;53.474;9.894;2023-06-14T15:57:09;26.00;47.70
12819;DHT22;6474;53.474;9.894;2023-06-14T15:59:38;26.00;47.70
12819;DHT22;6474;53.474;9.894;2023-06-14T16:02:06;26.00;47.60